Time;durP1;ratioP1;P1;durP2;ratioP2;P2;SDS_P1;SDS_P2;PMS_P1;PMS_P2;Temp;Humidity;BMP_temperature;BMP_pressure;BME280_temperature;BME280_humidity;BME280_pressure;Samples;Min_cycle;Max_cycle;Signal;HPM_P1;HPM_P2
2022/02/01 00:01:34;;;;;;;48.70;19.20;;;;;;;0.18;77.95;97732.83;218772;1277;22772;-70
2022/02/01 00:13:28;;;;;;;47.50;18.30;;;;;;;0.18;77.88;97731.20;219736;1275;22553;-70
2022/02/01 00:35:32;;;;;;;37.90;14.00;;;;;;;0.13;77.73;97744.42;218806;1276;22560;-70
2022/02/01 00:40:21;;;;;;;40.80;15.60;;;;;;;0.12;78.07;97752.31;219929;1274;22557;-69
2022/02/01 00:51:21;;;;;;;42.60;16.20;;;;;;;0.08;78.25;97769.95;219115;1274;26114;-70
2022/02/01 00:56:33;;;;;;;38.40;15.70;;;;;;;0.08;78.21;97784.61;219340;1274;22566;-69
2022/02/01 01:01:47;;;;;;;37.90;14.30;;;;;;;0.08;78.38;97787.17;219603;1274;22592;-69
2022/02/01 01:07:14;;;;;;;36.80;14.10;;;;;;;0.08;78.27;97784.60;219664;1274;24343;-69
2022/02/01 01:12:30;;;;;;;38.50;13.70;;;;;;;0.07;78.52;97781.96;218939;1274;25589;-69
2022/02/01 01:44:24;;;;;;;30.30;11.40;;;;;;;-0.05;79.10;97802.44;219143;1274;22555;-70
2022/02/01 01:54:47;;;;;;;37.20;12.70;;;;;;;-0.11;79.44;97826.77;219137;1274;26297;-69
2022/02/01 02:00:02;;;;;;;31.20;12.40;;;;;;;-0.13;79.31;97829.87;218829;1274;25697;-69
2022/02/01 02:05:20;;;;;;;30.60;12.10;;;;;;;-0.19;79.14;97824.47;218950;1274;22567;-69
2022/02/01 02:10:32;;;;;;;29.40;11.60;;;;;;;-0.30;79.28;97822.05;218727;1276;23878;-69
2022/02/01 02:15:46;;;;;;;32.10;12.10;;;;;;;-0.45;79.26;97822.98;218843;1274;25613;-70
2022/02/01 02:21:55;;;;;;;;;;;;;;;;;;;;;
2022/02/01 02:27:19;;;;;;;26.90;10.70;;;;;;;-0.75;79.64;97833.50;219082;1274;25441;-69
2022/02/01 02:33:40;;;;;;;28.00;12.30;;;;;;;-0.89;80.01;97855.25;219175;1274;24285;-71
2022/02/01 02:39:19;;;;;;;;;;;;;;;;;;;;;
2022/02/01 02:45:12;;;;;;;30.30;12.20;;;;;;;-0.89;80.53;97879.23;218892;1276;24112;-69
2022/02/01 02:50:55;;;;;;;28.70;12.10;;;;;;;-0.85;80.63;97892.23;218954;1274;24377;-69
2022/02/01 02:56:23;;;;;;;29.00;10.30;;;;;;;-0.79;80.89;97893.91;219077;1274;22563;-70
2022/02/01 03:01:51;;;;;;;19.00;9.20;;;;;;;-0.74;80.74;97893.48;219324;1275;22543;-68
2022/02/01 03:07:05;;;;;;;26.40;9.80;;;;;;;-0.70;80.97;97907.18;219025;1274;22580;-68
2022/02/01 03:12:21;;;;;;;25.00;9.20;;;;;;;-0.67;80.80;97923.60;219001;1274;22620;-67
2022/02/01 03:23:23;;;;;;;;;;;;;;;;;;;;;
2022/02/01 03:34:43;;;;;;;27.90;10.20;;;;;;;-0.70;80.91;97941.17;219750;1276;22564;-69
2022/02/01 03:39:49;;;;;;;35.00;11.40;;;;;;;-0.67;80.87;97939.22;219621;1277;25440;-69
2022/02/01 03:45:19;;;;;;;27.20;11.10;;;;;;;-0.65;81.14;97946.56;219063;1274;24255;-69
2022/02/01 03:50:22;;;;;;;28.50;11.20;;;;;;;-0.64;80.89;97936.59;219001;1276;24286;-69
2022/02/01 03:55:58;;;;;;;27.70;10.90;;;;;;;-0.63;81.10;97937.14;218837;1276;24321;-69
2022/02/01 04:01:55;;;;;;;24.90;10.00;;;;;;;-0.58;80.92;97932.43;218877;1277;25416;-70
2022/02/01 04:07:21;;;;;;;29.00;10.70;;;;;;;-0.55;80.92;97922.12;218964;1276;24722;-69
2022/02/01 04:12:52;;;;;;;26.90;11.10;;;;;;;-0.53;81.04;97923.48;219103;1277;22550;-70
2022/02/01 04:17:59;;;;;;;32.60;10.30;;;;;;;-0.49;80.95;97931.38;219010;1274;22841;-69
2022/02/01 04:23:08;;;;;;;33.70;11.60;;;;;;;-0.49;81.13;97930.45;219410;1274;22538;-70
2022/02/01 04:28:16;;;;;;;22.40;11.60;;;;;;;-0.45;81.31;97928.74;219309;1274;24351;-69
2022/02/01 04:33:24;;;;;;;34.80;12.90;;;;;;;-0.44;81.31;97930.35;219118;1274;22770;-69
2022/02/01 04:38:39;;;;;;;43.80;14.90;;;;;;;-0.44;81.04;97933.58;218749;1276;25586;-70
2022/02/01 04:44:01;;;;;;;38.40;13.90;;;;;;;-0.45;81.51;97933.98;219154;1274;23850;-69
2022/02/01 04:49:09;;;;;;;38.30;14.80;;;;;;;-0.46;81.45;97943.37;218802;1274;25455;-69
2022/02/01 04:54:32;;;;;;;40.50;14.20;;;;;;;-0.48;81.47;97953.13;218938;1274;25406;-69
2022/02/01 05:00:03;;;;;;;29.90;12.80;;;;;;;-0.48;81.46;97963.45;219215;1274;22599;-69
2022/02/01 05:05:07;;;;;;;36.20;13.60;;;;;;;-0.44;81.42;97976.66;219310;1274;24459;-69
2022/02/01 05:10:10;;;;;;;34.10;13.40;;;;;;;-0.42;81.40;97984.98;219001;1274;25333;-69
2022/02/01 05:15:12;;;;;;;42.20;14.90;;;;;;;-0.42;81.37;97991.33;218979;1274;22646;-69
2022/02/01 05:20:31;;;;;;;41.10;16.60;;;;;;;-0.47;81.53;97993.14;219656;1274;22583;-69
2022/02/01 05:25:34;;;;;;;45.20;14.90;;;;;;;-0.50;81.50;98000.17;218886;1274;22600;-69
2022/02/01 05:31:04;;;;;;;37.00;13.50;;;;;;;-0.52;81.55;98009.38;218918;1274;22662;-69
2022/02/01 05:36:07;;;;;;;39.70;14.00;;;;;;;-0.57;81.55;98015.65;219884;1274;22578;-69
2022/02/01 05:41:28;;;;;;;34.80;13.60;;;;;;;-0.60;81.43;98022.31;219081;1274;22545;-69
2022/02/01 05:46:59;;;;;;;37.90;14.60;;;;;;;-0.64;81.69;98039.55;218783;1276;22569;-69
2022/02/01 05:52:24;;;;;;;32.60;13.10;;;;;;;-0.67;81.96;98042.13;219012;1274;22574;-69
2022/02/01 05:57:39;;;;;;;37.40;14.60;;;;;;;-0.73;81.70;98036.50;219049;1274;24228;-68
2022/02/01 06:03:11;;;;;;;34.90;12.20;;;;;;;-0.75;81.79;98046.64;218855;1276;25275;-68
2022/02/01 06:08:13;;;;;;;31.40;12.50;;;;;;;-0.73;82.00;98055.84;218952;1274;24251;-69
2022/02/01 06:13:56;;;;;;;31.70;11.30;;;;;;;-0.68;81.86;98058.41;218679;1274;23870;-70
2022/02/01 06:19:21;;;;;;;24.90;10.70;;;;;;;-0.60;82.13;98063.88;219021;1277;24377;-69
2022/02/01 06:24:43;;;;;;;24.00;10.50;;;;;;;-0.51;82.08;98060.48;219015;1274;22780;-69
2022/02/01 06:29:48;;;;;;;27.10;10.80;;;;;;;-0.48;81.93;98064.33;218948;1274;22579;-69
2022/02/01 06:34:53;;;;;;;30.60;12.30;;;;;;;-0.49;81.56;98066.95;220294;1274;22546;-69
2022/02/01 06:40:31;;;;;;;;;;;;;;;;;;;;;
2022/02/01 06:45:51;;;;;;;;;;;;;;;;;;;;;
2022/02/01 06:51:02;;;;;;;37.00;12.10;;;;;;;-0.51;81.77;98080.42;218643;1274;25932;-69
2022/02/01 06:56:09;;;;;;;30.80;11.90;;;;;;;-0.42;82.06;98091.91;218566;1274;23896;-70
2022/02/01 07:06:56;;;;;;;25.60;11.60;;;;;;;-0.36;81.97;98100.55;220333;1275;22869;-70
2022/02/01 07:12:38;;;;;;;29.30;11.60;;;;;;;-0.35;81.97;98105.20;220508;1276;22548;-70
2022/02/01 07:18:17;;;;;;;27.20;11.80;;;;;;;-0.34;81.88;98106.93;220240;1274;22550;-70
2022/02/01 07:24:37;;;;;;;30.70;11.80;;;;;;;-0.30;81.98;98111.20;220483;1274;22816;-70
2022/02/01 07:35:39;;;;;;;26.10;11.10;;;;;;;-0.10;81.65;98128.67;220378;1274;22612;-69
2022/02/01 07:41:00;;;;;;;31.30;11.60;;;;;;;-0.06;81.65;98121.70;220176;1274;22491;-70
2022/02/01 07:46:28;;;;;;;;;;;;;;;;;;;;;
2022/02/01 07:52:02;;;;;;;28.20;11.30;;;;;;;-0.17;81.25;98125.04;219910;1276;22582;-70
2022/02/01 07:57:18;;;;;;;29.10;11.10;;;;;;;-0.19;81.47;98129.95;220366;1277;23142;-71
2022/02/01 08:03:15;;;;;;;23.30;9.20;;;;;;;-0.11;81.67;98133.04;220563;1274;26266;-70
2022/02/01 08:09:06;;;;;;;;;;;;;;;;;;;;;
2022/02/01 08:20:13;;;;;;;21.40;9.30;;;;;;;0.23;81.71;98140.95;216485;1274;5396198;-71
2022/02/01 08:26:00;;;;;;;25.80;11.40;;;;;;;0.42;81.00;98140.21;220633;1274;22670;-70
2022/02/01 08:31:21;;;;;;;24.80;10.70;;;;;;;0.48;80.84;98143.27;220433;1274;26799;-70
2022/02/01 08:36:40;;;;;;;22.70;9.70;;;;;;;0.55;80.84;98144.65;220726;1274;22567;-71
2022/02/01 08:41:59;;;;;;;23.80;9.60;;;;;;;0.75;80.82;98140.50;220335;1274;24461;-70
2022/02/01 08:47:24;;;;;;;19.00;8.90;;;;;;;0.96;80.63;98142.50;220266;1274;24259;-69
2022/02/01 08:52:44;;;;;;;24.20;10.00;;;;;;;1.19;80.23;98145.94;218490;1274;23759;-70
2022/02/01 08:57:59;;;;;;;18.80;7.80;;;;;;;1.21;79.44;98147.55;218578;1274;23815;-70
2022/02/01 09:03:17;;;;;;;11.10;5.50;;;;;;;1.15;78.86;98140.29;220326;1274;25324;-70
2022/02/01 09:08:33;;;;;;;9.90;5.00;;;;;;;1.09;78.14;98128.87;218992;1274;24084;-70
2022/02/01 09:13:49;;;;;;;20.20;5.50;;;;;;;1.09;77.93;98132.02;219201;1277;22687;-70
2022/02/01 09:19:17;;;;;;;12.10;5.80;;;;;;;1.06;77.34;98130.81;220124;1277;23071;-71
2022/02/01 09:25:02;;;;;;;14.60;5.40;;;;;;;1.03;77.26;98124.59;220138;1276;22587;-70
2022/02/01 09:30:46;;;;;;;;;;;;;;;;;;;;;
2022/02/01 09:36:28;;;;;;;12.60;6.30;;;;;;;1.16;77.37;98141.95;220426;1274;22566;-70
2022/02/01 09:42:17;;;;;;;15.60;7.00;;;;;;;1.11;76.85;98149.88;220223;1275;24212;-70
2022/02/01 09:47:34;;;;;;;16.00;7.30;;;;;;;1.08;76.88;98159.13;220294;1274;22617;-70
2022/02/01 09:52:40;;;;;;;13.40;6.90;;;;;;;1.10;76.56;98159.58;220288;1274;22729;-70
2022/02/01 09:58:01;;;;;;;9.20;5.00;;;;;;;1.05;76.36;98167.73;220066;1275;22708;-69
2022/02/01 10:03:20;;;;;;;11.10;5.90;;;;;;;1.01;76.27;98160.73;220063;1274;22969;-71
2022/02/01 10:08:47;;;;;;;12.40;4.90;;;;;;;0.89;76.10;98149.05;220033;1276;22547;-69
2022/02/01 10:13:55;;;;;;;10.20;4.50;;;;;;;0.77;75.61;98138.25;218333;1276;22579;-69
2022/02/01 10:19:11;;;;;;;13.60;5.40;;;;;;;0.72;75.78;98122.98;218433;1277;22548;-70
2022/02/01 10:24:14;;;;;;;13.20;5.80;;;;;;;0.75;76.21;98114.97;218645;1273;26498;-68
2022/02/01 10:29:21;;;;;;;13.80;5.70;;;;;;;0.84;76.23;98109.08;220345;1274;25443;-70
2022/02/01 10:34:40;;;;;;;12.20;5.60;;;;;;;1.03;76.61;98104.18;219247;1274;22592;-69
2022/02/01 10:40:07;;;;;;;11.20;4.90;;;;;;;1.22;76.55;98098.86;219035;1274;22551;-69
2022/02/01 10:45:16;;;;;;;12.10;4.90;;;;;;;1.32;76.62;98093.49;218940;1274;22576;-70
2022/02/01 10:50:27;;;;;;;12.30;5.30;;;;;;;1.31;76.77;98089.69;218749;1274;22480;-70
2022/02/01 10:55:39;;;;;;;13.20;6.40;;;;;;;1.14;77.20;98092.91;219054;1274;25440;-70
2022/02/01 11:00:44;;;;;;;15.20;5.70;;;;;;;1.03;77.50;98086.58;218732;1274;22600;-70
2022/02/01 11:05:49;;;;;;;11.10;4.80;;;;;;;0.96;77.78;98082.63;218842;1274;22544;-70
2022/02/01 11:10:55;;;;;;;11.90;5.20;;;;;;;0.88;78.21;98081.88;219107;1274;22569;-68
2022/02/01 11:16:02;;;;;;;10.20;4.90;;;;;;;0.88;78.35;98079.24;218755;1274;23003;-68
2022/02/01 11:21:05;;;;;;;14.50;5.60;;;;;;;0.82;77.83;98075.84;218777;1274;22551;-67
2022/02/01 11:26:20;;;;;;;17.20;6.10;;;;;;;0.74;77.90;98077.52;218882;1274;22482;-69
2022/02/01 11:31:34;;;;;;;15.90;6.20;;;;;;;0.74;78.36;98078.10;219124;1274;22541;-69
2022/02/01 11:37:02;;;;;;;13.90;6.30;;;;;;;0.73;78.44;98072.44;219053;1275;22714;-69
2022/02/01 11:42:34;;;;;;;22.40;10.00;;;;;;;0.84;78.80;98053.13;218780;1274;25404;-69
2022/02/01 11:47:38;;;;;;;16.30;7.40;;;;;;;0.94;78.34;98035.34;218887;1274;25476;-69
2022/02/01 11:52:53;;;;;;;16.60;7.20;;;;;;;1.00;77.81;98027.82;218917;1274;24744;-69
2022/02/01 11:58:05;;;;;;;10.20;4.90;;;;;;;1.09;77.43;98021.28;218888;1276;22594;-69
2022/02/01 12:03:17;;;;;;;12.00;5.10;;;;;;;1.20;77.30;98015.55;219196;1274;22571;-70
2022/02/01 12:08:44;;;;;;;15.90;6.70;;;;;;;1.30;76.92;98005.65;218953;1274;22563;-69
2022/02/01 12:13:48;;;;;;;25.90;9.60;;;;;;;1.31;76.48;97999.70;218814;1274;24248;-69
2022/02/01 12:19:05;;;;;;;23.10;10.60;;;;;;;1.32;76.81;97979.61;218820;1274;22569;-69
2022/02/01 12:24:14;;;;;;;26.40;11.40;;;;;;;1.39;77.07;97972.71;218981;1274;24436;-69
2022/02/01 12:29:40;;;;;;;;;;;;;;;;;;;;;
2022/02/01 12:34:52;;;;;;;22.80;10.50;;;;;;;1.38;76.69;97964.79;218820;1274;25329;-69
2022/02/01 12:40:34;;;;;;;20.60;9.90;;;;;;;1.34;76.70;97956.04;218713;1274;22650;-69
2022/02/01 12:46:05;;;;;;;20.20;9.90;;;;;;;1.33;76.85;97953.38;218370;1277;25276;-69
2022/02/01 12:51:18;;;;;;;21.40;10.00;;;;;;;1.36;77.08;97952.09;218596;1277;23850;-70
2022/02/01 12:56:35;;;;;;;21.80;9.60;;;;;;;1.42;77.37;97945.52;218398;1277;25328;-70
2022/02/01 13:01:53;;;;;;;23.20;10.60;;;;;;;1.51;77.64;97942.21;219835;1277;22583;-70
2022/02/01 13:07:20;;;;;;;24.90;10.50;;;;;;;1.61;77.70;97924.63;219881;1277;22730;-69
2022/02/01 13:18:14;;;;;;;24.40;10.30;;;;;;;1.73;77.99;97914.95;219325;1277;23030;-70
2022/02/01 13:23:36;;;;;;;18.50;10.30;;;;;;;1.69;78.35;97909.23;220422;1274;22659;-72
2022/02/01 13:28:43;;;;;;;22.00;9.30;;;;;;;1.61;78.74;97906.83;220024;1275;24215;-69
2022/02/01 13:33:58;;;;;;;19.70;8.70;;;;;;;1.53;79.16;97910.91;218223;1275;22494;-70
2022/02/01 13:39:07;;;;;;;17.50;8.40;;;;;;;1.57;79.60;97913.19;220383;1274;22567;-72
2022/02/01 13:44:19;;;;;;;16.00;8.50;;;;;;;1.59;79.38;97913.94;219159;1274;22720;-70
2022/02/01 13:49:21;;;;;;;20.00;9.00;;;;;;;1.48;79.74;97906.13;220571;1275;22593;-71
2022/02/01 13:54:48;;;;;;;18.50;8.80;;;;;;;1.29;80.03;97900.35;220121;1274;22605;-70
2022/02/01 13:59:50;;;;;;;16.50;9.00;;;;;;;1.18;80.54;97886.85;220218;1274;22736;-70
2022/02/01 14:05:17;;;;;;;19.20;8.80;;;;;;;1.15;80.85;97875.32;219981;1276;23287;-70
2022/02/01 14:10:50;;;;;;;12.20;7.80;;;;;;;1.14;81.03;97871.61;220199;1274;24292;-70
2022/02/01 14:33:36;;;;;;;13.80;6.60;;;;;;;1.05;80.42;97852.69;218285;1277;22564;-70
2022/02/01 14:44:48;;;;;;;16.60;8.40;;;;;;;1.10;80.52;97825.56;218533;1274;22569;-69
2022/02/01 14:49:52;;;;;;;15.30;8.50;;;;;;;1.14;80.19;97815.73;218689;1274;22577;-69
2022/02/01 14:55:00;;;;;;;14.50;8.10;;;;;;;1.15;79.78;97804.61;218561;1277;22579;-69
2022/02/01 15:16:31;;;;;;;10.10;4.80;;;;;;;1.17;79.55;97770.29;218330;1277;22557;-70
2022/02/01 15:21:39;;;;;;;7.50;4.20;;;;;;;1.22;79.16;97763.10;218526;1277;23103;-69
2022/02/01 15:26:57;;;;;;;6.80;3.80;;;;;;;1.24;78.74;97762.20;218569;1277;25397;-70
2022/02/01 15:32:39;;;;;;;6.90;4.50;;;;;;;1.29;78.69;97760.30;219054;1277;25479;-68
2022/02/01 15:37:52;;;;;;;9.60;4.80;;;;;;;1.27;78.68;97759.39;218905;1276;25380;-68
2022/02/01 15:55:00;;;;;;;9.80;5.70;;;;;;;0.77;77.89;97733.39;218963;1274;24235;-69
2022/02/01 16:00:29;;;;;;;7.80;4.60;;;;;;;0.59;78.00;97726.46;218837;1277;22605;-69
2022/02/01 16:05:37;;;;;;;10.40;4.60;;;;;;;0.47;78.18;97717.55;219165;1274;22557;-70
2022/02/01 16:10:58;;;;;;;9.80;5.00;;;;;;;0.40;78.39;97704.57;218872;1274;22704;-70
2022/02/01 16:16:09;;;;;;;6.30;3.80;;;;;;;0.36;78.34;97693.52;219022;1274;24254;-69
2022/02/01 16:21:12;;;;;;;9.10;4.20;;;;;;;0.34;78.51;97671.10;218911;1274;22573;-69
2022/02/01 16:26:50;;;;;;;8.00;4.10;;;;;;;0.31;78.20;97655.36;219014;1275;25261;-69
2022/02/01 16:31:52;;;;;;;6.50;3.90;;;;;;;0.26;78.50;97650.73;219211;1274;22558;-70
2022/02/01 16:37:09;;;;;;;6.60;3.80;;;;;;;0.17;78.39;97634.42;219124;1274;25635;-68
2022/02/01 16:42:13;;;;;;;8.90;5.10;;;;;;;0.08;78.38;97616.80;219051;1274;22688;-69
2022/02/01 16:47:51;;;;;;;10.90;5.30;;;;;;;-0.01;78.65;97601.80;219219;1274;24170;-69
2022/02/01 16:53:17;;;;;;;12.00;5.50;;;;;;;-0.04;78.97;97595.25;219080;1274;23898;-68
2022/02/01 16:58:44;;;;;;;13.40;6.20;;;;;;;-0.03;78.97;97584.57;219255;1274;22653;-69
2022/02/01 17:04:12;;;;;;;14.80;7.30;;;;;;;0.05;79.45;97573.89;219388;1274;22615;-69
2022/02/01 17:09:18;;;;;;;12.50;7.20;;;;;;;0.11;79.60;97558.48;219036;1274;22560;-70
2022/02/01 17:26:04;;;;;;;15.00;7.60;;;;;;;0.35;78.93;97513.68;219462;1274;25364;-69
2022/02/01 17:37:15;;;;;;;12.00;6.00;;;;;;;0.45;78.45;97486.23;219357;1271;25936;-70
2022/02/01 17:42:23;;;;;;;12.90;6.60;;;;;;;0.48;78.38;97469.39;219953;1274;22735;-69
2022/02/01 17:48:02;;;;;;;13.00;6.60;;;;;;;0.46;78.10;97457.95;218847;1277;23052;-69
2022/02/01 17:53:20;;;;;;;13.70;6.70;;;;;;;0.44;78.31;97438.80;218989;1277;25387;-70
2022/02/01 17:58:45;;;;;;;13.20;6.30;;;;;;;0.41;78.28;97421.66;219024;1277;22569;-69
2022/02/01 18:03:54;;;;;;;11.90;6.30;;;;;;;0.39;78.30;97405.66;219513;1274;22609;-70
2022/02/01 18:09:41;;;;;;;11.80;5.50;;;;;;;0.38;78.20;97393.98;219434;1274;22559;-68
2022/02/01 18:15:27;;;;;;;11.30;6.30;;;;;;;0.34;78.34;97387.90;219293;1274;25324;-69
2022/02/01 18:20:36;;;;;;;12.10;4.90;;;;;;;0.32;78.43;97373.73;219305;1274;25273;-69
2022/02/01 18:25:48;;;;;;;8.10;4.20;;;;;;;0.32;78.64;97350.90;219628;1274;22547;-69
2022/02/01 18:30:55;;;;;;;9.40;4.80;;;;;;;0.32;78.35;97342.52;219109;1274;22719;-70
2022/02/01 18:36:37;;;;;;;12.70;6.10;;;;;;;0.33;78.68;97330.94;218895;1277;25380;-68
2022/02/01 18:41:52;;;;;;;15.50;7.60;;;;;;;0.36;78.56;97319.15;219070;1277;25386;-69
2022/02/01 18:47:03;;;;;;;15.00;7.10;;;;;;;0.38;78.87;97309.36;219078;1274;22567;-69
2022/02/01 18:53:20;;;;;;;15.00;6.90;;;;;;;0.42;78.72;97299.36;219355;1274;22590;-69
2022/02/01 18:58:05;;;;;;;13.30;6.90;;;;;;;0.47;78.97;97282.67;219104;1274;22596;-69
2022/02/01 19:03:48;;;;;;;12.60;5.60;;;;;;;0.51;78.90;97273.52;219332;1274;22545;-69
2022/02/01 19:14:18;;;;;;;11.50;4.70;;;;;;;0.52;79.65;97232.20;218996;1277;22924;-68
2022/02/01 19:19:24;;;;;;;9.90;5.20;;;;;;;0.47;80.21;97217.11;219279;1274;24709;-69
2022/02/01 19:24:57;;;;;;;;;;;;;;;;;;;;;
2022/02/01 19:30:56;;;;;;;10.00;5.20;;;;;;;0.38;81.37;97190.85;219322;1274;22631;-70
2022/02/01 19:36:29;;;;;;;9.40;5.40;;;;;;;0.31;82.26;97176.52;219429;1274;23225;-69
2022/02/01 19:42:08;;;;;;;9.70;5.60;;;;;;;0.25;82.92;97160.13;219411;1274;22564;-69
2022/02/01 19:47:37;;;;;;;11.70;5.30;;;;;;;0.18;84.42;97154.15;219583;1274;24255;-68
2022/02/01 19:52:50;;;;;;;10.30;5.50;;;;;;;0.12;84.84;97149.09;219489;1274;25314;-69
2022/02/01 19:58:02;;;;;;;9.70;4.90;;;;;;;0.07;84.98;97132.59;219293;1274;25437;-70
2022/02/01 20:03:07;;;;;;;10.40;5.10;;;;;;;-0.02;85.21;97126.63;219246;1274;24263;-68
2022/02/01 20:08:17;;;;;;;13.40;5.50;;;;;;;-0.07;85.16;97121.82;219263;1274;22563;-68
2022/02/01 20:13:23;;;;;;;11.40;4.90;;;;;;;-0.10;85.46;97103.44;219094;1276;23451;-69
2022/02/01 20:18:29;;;;;;;11.50;5.00;;;;;;;-0.13;85.76;97081.42;219015;1274;26632;-69
2022/02/01 20:23:43;;;;;;;10.20;5.10;;;;;;;-0.16;86.69;97068.30;218925;1274;349946;-68
2022/02/01 20:29:10;;;;;;;13.70;4.70;;;;;;;-0.21;87.72;97055.15;219128;1274;22573;-69
2022/02/01 20:34:26;;;;;;;;;;;;;;;;;;;;;
2022/02/01 20:45:57;;;;;;;12.20;5.10;;;;;;;-0.35;89.43;97011.90;219145;1274;25566;-69
2022/02/01 20:51:49;;;;;;;9.00;4.90;;;;;;;-0.37;89.97;97001.22;219422;1274;25354;-69
2022/02/01 20:57:51;;;;;;;8.30;4.50;;;;;;;-0.36;92.34;96992.96;219588;1274;22566;-69
2022/02/01 21:03:44;;;;;;;8.10;4.50;;;;;;;-0.37;93.59;96984.59;218920;1274;22543;-69
2022/02/01 21:09:47;;;;;;;7.10;3.80;;;;;;;-0.38;95.49;96975.70;219021;1274;23806;-69
2022/02/01 21:14:50;;;;;;;6.90;3.60;;;;;;;-0.39;95.64;96968.02;218876;1274;23023;-69
2022/02/01 21:20:08;;;;;;;9.10;4.60;;;;;;;-0.39;96.14;96965.77;219757;1274;22568;-69
2022/02/01 21:25:19;;;;;;;8.30;4.10;;;;;;;-0.39;96.24;96954.02;219380;1274;25331;-68
2022/02/01 21:31:08;;;;;;;;;;;;;;;;;;;;;
2022/02/01 21:37:22;;;;;;;9.60;4.90;;;;;;;-0.39;96.92;96936.44;219386;1274;22550;-69
2022/02/01 21:43:20;;;;;;;;;;;;;;;;;;;;;
2022/02/01 21:49:32;;;;;;;;;;;;;;;;;;;;;
2022/02/01 21:55:39;;;;;;;8.30;3.80;;;;;;;-0.34;96.91;96913.08;219057;1274;22622;-68
2022/02/01 22:01:35;;;;;;;11.30;5.20;;;;;;;-0.29;96.89;96907.56;218883;1274;22782;-68
2022/02/01 22:07:47;;;;;;;;;;;;;;;;;;;;;
2022/02/01 22:21:04;;;;;;;;;;;;;;;;;;;;;
2022/02/01 22:27:49;;;;;;;;;;;;;;;;;;;;;
2022/02/01 22:40:44;;;;;;;7.10;3.30;;;;;;;-0.14;94.95;96888.61;218621;1274;25920;-67
2022/02/01 22:47:09;;;;;;;5.90;3.50;;;;;;;-0.13;94.92;96883.80;218532;1276;24919;-68
2022/02/01 22:53:34;;;;;;;8.70;4.00;;;;;;;-0.12;94.95;96876.90;218697;1277;22487;-71
2022/02/01 22:59:40;;;;;;;8.30;3.80;;;;;;;-0.09;94.59;96894.08;218850;1277;26712;-68
2022/02/01 23:18:29;;;;;;;11.10;4.80;;;;;;;-0.14;95.18;96876.98;218896;1274;22562;-69
2022/02/01 23:25:07;;;;;;;10.40;5.00;;;;;;;-0.18;95.82;96884.61;219745;1274;24266;-69
2022/02/01 23:33:06;;;;;;;11.20;4.70;;;;;;;-0.22;95.91;96886.92;218452;1276;22785;-69
2022/02/01 23:40:27;;;;;;;8.30;4.40;;;;;;;-0.23;96.13;96877.13;218935;1276;22559;-69
2022/02/01 23:59:27;;;;;;;8.60;3.80;;;;;;;-0.12;97.19;96869.39;218836;1274;22583;-69
